KEGI/EGI METAR and TAF weather

Enter ICAO airport designator
Station Type Date Time Source
KEGI METAR 2022/06/30 13:56 UTC NOAA

KEGI 301356Z AUTO 05004KT 10SM VCTS SCT120 27/23 A3015 RMK AO2 SLP209 T02690231 $


Station Type Date Time Source
KEGI Decoded METAR 2022/06/30 13:56 UTC NOAA

Duke Field / Eglin Auxiliary, FL, United States (KEGI) 30-39N 086-31W
Jun 30, 2022 - 09:56 AM EDT / 2022.06.30 1356 UTC
Wind: from the NE (050 degrees) at 5 MPH (4 KT):0
Visibility: 10 mile(s):0
Sky conditions: partly cloudy
Weather: thunder in the vicinity
Temperature: 80.4 F (26.9 C)
Dew Point: 73.6 F (23.1 C)
Relative Humidity: 79%
Pressure (altimeter): 30.15 in. Hg (1020 hPa)
ob: KEGI 301356Z AUTO 05004KT 10SM VCTS SCT120 27/23 A3015 RMK AO2 SLP209 T02690231
cycle: 14

Station Type Date Time Source
KEGI TAF 2022/06/30 12:03 UTC NOAA

TAF
AMD KEGI 301200Z 3012/0115 08006KT 9999 SCT015 BKN100 QNH3005INS
BECMG 3015/3016 11009KT 9999 -SHRA VCTS BKN035CB OVC100 QNH3000INS
TEMPO 3017/0101 15015G25KT 6000 -TSRA BKN030CB
BECMG 0101/0102 10006KT 9999 VCSH BKN015 BKN080 QNH2996INS
BECMG 0112/0113 12012G18KT 8000 -TSRA BKN015CB OVC100 QNH3002INS TX30/3021Z TN22/3012Z

Example: see airport list